Time,TemperatureF,DewpointF,PressureIn,WindDirection,WindDirectionDegrees,WindSpeedMPH,WindSpeedGustMPH,Humidity,HourlyPrecipIn,Conditions,Clouds,dailyrainin,SoftwareType,DateUTC
2013-05-10 00:02:00,52.2,48.4,30.01,SSE,157,0.0,-999.0,87,-99.99,,,0.00,Acu-Link.com,2013-05-10 07:02:00,
2013-05-10 00:17:00,52.0,48.3,30.01,SW,225,0.0,-999.0,87,-99.99,,,0.00,Acu-Link.com,2013-05-10 07:17:00,
2013-05-10 00:33:00,51.8,48.1,30.01,NW,315,0.0,-999.0,87,-99.99,,,0.00,Acu-Link.com,2013-05-10 07:33:00,
2013-05-10 00:48:00,51.6,47.9,30.02,SE,135,0.0,-999.0,87,-99.99,,,0.00,Acu-Link.com,2013-05-10 07:48:00,
2013-05-10 01:03:00,51.4,47.7,30.02,East,90,0.0,-999.0,87,-99.99,,,0.00,Acu-Link.com,2013-05-10 08:03:00,
2013-05-10 01:19:00,51.3,47.6,30.02,West,270,0.0,-999.0,87,-99.99,,,0.00,Acu-Link.com,2013-05-10 08:19:00,
2013-05-10 01:34:00,51.1,47.7,30.02,NNW,337,0.0,-999.0,88,-99.99,,,0.00,Acu-Link.com,2013-05-10 08:34:00,
2013-05-10 01:49:00,50.9,48.1,30.02,SSW,202,0.0,-999.0,90,-99.99,,,0.00,Acu-Link.com,2013-05-10 08:49:00,
2013-05-10 02:04:00,50.7,47.6,30.01,NNW,337,0.0,-999.0,89,-99.99,,,0.00,Acu-Link.com,2013-05-10 09:04:00,
2013-05-10 02:20:00,50.5,48.0,30.00,NNW,337,0.0,-999.0,91,-99.99,,,0.00,Acu-Link.com,2013-05-10 09:20:00,
2013-05-10 02:35:00,50.5,48.0,30.00,WSW,247,0.0,-999.0,91,-99.99,,,0.00,Acu-Link.com,2013-05-10 09:35:00,
2013-05-10 02:50:00,50.5,48.3,29.99,West,270,0.0,-999.0,92,-99.99,,,0.00,Acu-Link.com,2013-05-10 09:50:00,
2013-05-10 03:05:00,50.2,48.0,29.99,SW,225,0.0,-999.0,92,-99.99,,,0.00,Acu-Link.com,2013-05-10 10:05:00,
2013-05-10 03:20:00,50.0,48.3,29.99,SW,225,0.0,-999.0,94,-99.99,,,0.00,Acu-Link.com,2013-05-10 10:20:00,
2013-05-10 03:36:00,50.0,48.3,29.99,West,270,0.0,-999.0,94,-99.99,,,0.00,Acu-Link.com,2013-05-10 10:36:00,
2013-05-10 03:51:00,49.8,48.4,29.98,SSE,157,0.0,-999.0,95,-99.99,,,0.00,Acu-Link.com,2013-05-10 10:51:00,
2013-05-10 04:06:00,49.8,48.1,29.98,SSE,157,0.0,-999.0,94,-99.99,,,0.00,Acu-Link.com,2013-05-10 11:06:00,
2013-05-10 04:22:00,49.6,48.2,29.98,SW,225,0.0,-999.0,95,-99.99,,,0.00,Acu-Link.com,2013-05-10 11:22:00,
2013-05-10 04:37:00,49.5,48.1,29.97,NNW,337,0.0,-999.0,95,-99.99,,,0.00,Acu-Link.com,2013-05-10 11:37:00,
2013-05-10 04:52:00,49.3,48.2,29.97,NNW,337,0.0,-999.0,96,-99.99,,,0.00,Acu-Link.com,2013-05-10 11:52:00,
2013-05-10 05:08:00,49.1,48.0,29.97,NNW,337,0.0,-999.0,96,-99.99,,,0.00,Acu-Link.com,2013-05-10 12:08:00,
2013-05-10 05:23:00,49.1,48.0,29.98,SW,225,0.0,-999.0,96,-99.99,,,0.00,Acu-Link.com,2013-05-10 12:23:00,
2013-05-10 05:38:00,48.7,47.6,29.98,SW,225,0.0,-999.0,96,-99.99,,,0.00,Acu-Link.com,2013-05-10 12:38:00,
2013-05-10 05:53:00,48.7,47.9,29.98,WNW,292,0.0,-999.0,97,-99.99,,,0.00,Acu-Link.com,2013-05-10 12:53:00,
2013-05-10 06:09:00,48.6,47.8,29.98,NW,315,0.0,-999.0,97,-99.99,,,0.00,Acu-Link.com,2013-05-10 13:09:00,
2013-05-10 06:24:00,48.6,48.1,29.99,WSW,247,0.0,-999.0,98,-99.99,,,0.00,Acu-Link.com,2013-05-10 13:24:00,
2013-05-10 06:39:00,48.7,48.2,29.99,NE,45,0.0,-999.0,98,-99.99,,,0.00,Acu-Link.com,2013-05-10 13:39:00,
2013-05-10 06:54:00,49.1,48.6,30.00,ESE,112,0.0,-999.0,98,-99.99,,,0.00,Acu-Link.com,2013-05-10 13:54:00,
2013-05-10 07:10:00,50.0,49.7,30.00,North,0,0.0,-999.0,99,-99.99,,,0.00,Acu-Link.com,2013-05-10 14:10:00,
2013-05-10 07:25:00,51.3,50.8,30.01,NNW,337,0.0,-999.0,98,-99.99,,,0.00,Acu-Link.com,2013-05-10 14:25:00,
2013-05-10 07:40:00,52.0,50.9,30.02,SSE,157,0.0,-999.0,96,-99.99,,,0.00,Acu-Link.com,2013-05-10 14:40:00,
2013-05-10 07:55:00,52.9,51.2,30.01,ESE,112,1.1,-999.0,94,-99.99,,,0.00,Acu-Link.com,2013-05-10 14:55:00,
2013-05-10 08:11:00,53.6,51.6,30.01,ESE,112,0.0,-999.0,93,-99.99,,,0.00,Acu-Link.com,2013-05-10 15:11:00,
2013-05-10 08:26:00,54.7,52.1,30.01,SSE,157,1.1,-999.0,91,-99.99,,,0.00,Acu-Link.com,2013-05-10 15:26:00,
2013-05-10 08:41:00,56.3,52.2,30.01,SE,135,1.7,-999.0,86,-99.99,,,0.00,Acu-Link.com,2013-05-10 15:41:00,
2013-05-10 08:56:00,58.5,52.4,30.01,SSE,157,2.2,-999.0,80,-99.99,,,0.00,Acu-Link.com,2013-05-10 15:56:00,
2013-05-10 09:11:00,58.3,52.2,30.01,ESE,112,0.0,-999.0,80,-99.99,,,0.00,Acu-Link.com,2013-05-10 16:11:00,
2013-05-10 09:27:00,57.6,52.1,30.01,SW,225,3.2,-999.0,82,-99.99,,,0.00,Acu-Link.com,2013-05-10 16:27:00,
2013-05-10 09:42:00,57.6,52.5,30.01,WNW,292,2.2,-999.0,83,-99.99,,,0.00,Acu-Link.com,2013-05-10 16:42:00,
2013-05-10 09:57:00,58.1,52.6,30.01,SSE,157,1.7,-999.0,82,-99.99,,,0.00,Acu-Link.com,2013-05-10 16:57:00,
2013-05-10 10:12:00,59.2,53.0,30.01,ESE,112,0.0,-999.0,80,-99.99,,,0.00,Acu-Link.com,2013-05-10 17:12:00,
2013-05-10 10:28:00,60.4,53.2,30.01,ESE,112,0.0,-999.0,77,-99.99,,,0.00,Acu-Link.com,2013-05-10 17:28:00,
2013-05-10 10:43:00,61.7,54.1,30.02,ESE,112,1.7,-999.0,76,-99.99,,,0.00,Acu-Link.com,2013-05-10 17:43:00,
2013-05-10 10:58:00,62.8,54.4,30.01,ESE,112,0.0,-999.0,74,-99.99,,,0.00,Acu-Link.com,2013-05-10 17:58:00,
2013-05-10 11:14:00,64.4,54.8,30.01,ESE,112,1.1,-999.0,71,-99.99,,,0.00,Acu-Link.com,2013-05-10 18:14:00,
2013-05-10 11:29:00,65.7,55.2,30.02,WNW,292,0.0,-999.0,69,-99.99,,,0.00,Acu-Link.com,2013-05-10 18:29:00,
2013-05-10 11:44:00,67.6,55.0,30.01,SSE,157,1.7,-999.0,64,-99.99,,,0.00,Acu-Link.com,2013-05-10 18:44:00,
2013-05-10 11:59:00,69.8,56.6,30.00,East,90,0.0,-999.0,63,-99.99,,,0.00,Acu-Link.com,2013-05-10 18:59:00,
2013-05-10 12:14:00,70.5,55.5,30.00,ESE,112,1.7,-999.0,59,-99.99,,,0.00,Acu-Link.com,2013-05-10 19:14:00,
2013-05-10 12:30:00,74.7,57.4,29.99,West,270,0.0,-999.0,55,-99.99,,,0.00,Acu-Link.com,2013-05-10 19:30:00,
2013-05-10 12:45:00,77.9,57.7,29.99,SSE,157,0.0,-999.0,50,-99.99,,,0.00,Acu-Link.com,2013-05-10 19:45:00,
2013-05-10 13:00:00,80.8,58.7,29.98,WNW,292,1.7,-999.0,47,-99.99,,,0.00,Acu-Link.com,2013-05-10 20:00:00,
2013-05-10 13:16:00,78.6,57.2,29.98,ESE,112,1.7,-999.0,48,-99.99,,,0.00,Acu-Link.com,2013-05-10 20:16:00,
2013-05-10 13:31:00,81.7,58.9,29.97,South,180,2.2,-999.0,46,-99.99,,,0.00,Acu-Link.com,2013-05-10 20:31:00,
2013-05-10 13:46:00,82.2,58.1,29.96,NNW,337,2.2,-999.0,44,-99.99,,,0.00,Acu-Link.com,2013-05-10 20:46:00,
2013-05-10 14:02:00,83.3,57.8,29.96,SE,135,2.2,-999.0,42,-99.99,,,0.00,Acu-Link.com,2013-05-10 21:02:00,
2013-05-10 14:17:00,82.4,58.3,29.96,East,90,1.1,-999.0,44,-99.99,,,0.00,Acu-Link.com,2013-05-10 21:17:00,
2013-05-10 14:32:00,82.2,58.7,29.96,SSE,157,3.2,-999.0,45,-99.99,,,0.00,Acu-Link.com,2013-05-10 21:32:00,
2013-05-10 14:47:00,83.3,59.1,29.95,NNE,22,1.1,-999.0,44,-99.99,,,0.00,Acu-Link.com,2013-05-10 21:47:00,
2013-05-10 15:02:00,82.9,57.4,29.95,ENE,67,3.7,-999.0,42,-99.99,,,0.00,Acu-Link.com,2013-05-10 22:02:00,
2013-05-10 15:18:00,85.5,58.4,29.95,East,90,5.3,-999.0,40,-99.99,,,0.00,Acu-Link.com,2013-05-10 22:18:00,
2013-05-10 15:33:00,84.7,57.7,29.95,NNW,337,2.7,-999.0,40,-99.99,,,0.00,Acu-Link.com,2013-05-10 22:33:00,
2013-05-10 15:48:00,84.2,57.2,29.94,SSE,157,2.2,-999.0,40,-99.99,,,0.00,Acu-Link.com,2013-05-10 22:48:00,
2013-05-10 16:04:00,83.3,57.1,29.93,SE,135,2.7,-999.0,41,-99.99,,,0.00,Acu-Link.com,2013-05-10 23:04:00,
2013-05-10 16:19:00,81.9,55.9,29.93,SE,135,1.7,-999.0,41,-99.99,,,0.00,Acu-Link.com,2013-05-10 23:19:00,
2013-05-10 16:34:00,80.4,55.2,29.92,SSE,157,2.2,-999.0,42,-99.99,,,0.00,Acu-Link.com,2013-05-10 23:34:00,
2013-05-10 16:49:00,81.5,55.5,29.92,NW,315,2.2,-999.0,41,-99.99,,,0.00,Acu-Link.com,2013-05-10 23:49:00,
2013-05-10 17:05:00,80.4,54.5,29.92,SSE,157,2.2,-999.0,41,-99.99,,,0.00,Acu-Link.com,2013-05-11 00:05:00,
2013-05-10 17:20:00,79.5,53.7,29.92,SW,225,1.7,-999.0,41,-99.99,,,0.00,Acu-Link.com,2013-05-11 00:20:00,
2013-05-10 17:35:00,79.0,53.3,29.92,SSE,157,0.0,-999.0,41,-99.99,,,0.00,Acu-Link.com,2013-05-11 00:35:00,
2013-05-10 17:50:00,77.5,52.6,29.92,SSE,157,1.7,-999.0,42,-99.99,,,0.00,Acu-Link.com,2013-05-11 00:50:00,
2013-05-10 18:06:00,76.6,52.4,29.92,ESE,112,0.0,-999.0,43,-99.99,,,0.00,Acu-Link.com,2013-05-11 01:06:00,
2013-05-10 18:21:00,75.9,51.8,29.92,ESE,112,0.0,-999.0,43,-99.99,,,0.00,Acu-Link.com,2013-05-11 01:21:00,
2013-05-10 18:36:00,75.0,51.6,29.93,West,270,1.1,-999.0,44,-99.99,,,0.00,Acu-Link.com,2013-05-11 01:36:00,
2013-05-10 18:51:00,73.2,51.2,29.92,ESE,112,0.0,-999.0,46,-99.99,,,0.00,Acu-Link.com,2013-05-11 01:51:00,
2013-05-10 19:07:00,72.7,51.9,29.93,SE,135,0.0,-999.0,48,-99.99,,,0.00,Acu-Link.com,2013-05-11 02:07:00,
2013-05-10 19:22:00,71.1,51.5,29.93,SSE,157,1.1,-999.0,50,-99.99,,,0.00,Acu-Link.com,2013-05-11 02:22:00,
2013-05-10 19:37:00,69.8,51.9,29.94,ESE,112,0.0,-999.0,53,-99.99,,,0.00,Acu-Link.com,2013-05-11 02:37:00,
2013-05-10 19:53:00,68.7,51.9,29.94,East,90,0.0,-999.0,55,-99.99,,,0.00,Acu-Link.com,2013-05-11 02:53:00,
2013-05-10 20:08:00,67.8,52.5,29.95,ESE,112,0.0,-999.0,58,-99.99,,,0.00,Acu-Link.com,2013-05-11 03:08:00,
2013-05-10 20:23:00,66.4,52.1,29.95,SSE,157,0.0,-999.0,60,-99.99,,,0.00,Acu-Link.com,2013-05-11 03:23:00,
2013-05-10 20:38:00,64.4,51.5,29.96,NW,315,0.0,-999.0,63,-99.99,,,0.00,Acu-Link.com,2013-05-11 03:38:00,
2013-05-10 20:53:00,63.1,51.1,29.96,SSE,157,0.0,-999.0,65,-99.99,,,0.00,Acu-Link.com,2013-05-11 03:53:00,
2013-05-10 21:08:00,61.9,50.8,29.96,NNW,337,0.0,-999.0,67,-99.99,,,0.00,Acu-Link.com,2013-05-11 04:08:00,
2013-05-10 21:23:00,60.4,50.2,29.96,West,270,0.0,-999.0,69,-99.99,,,0.00,Acu-Link.com,2013-05-11 04:23:00,
2013-05-10 21:39:00,59.4,50.4,29.97,NNW,337,0.0,-999.0,72,-99.99,,,0.00,Acu-Link.com,2013-05-11 04:39:00,
2013-05-10 21:54:00,58.3,50.4,29.97,South,180,1.1,-999.0,75,-99.99,,,0.00,Acu-Link.com,2013-05-11 04:54:00,
2013-05-10 22:09:00,57.4,50.2,29.97,NNW,337,0.0,-999.0,77,-99.99,,,0.00,Acu-Link.com,2013-05-11 05:09:00,
2013-05-10 22:25:00,57.0,50.2,29.97,South,180,0.0,-999.0,78,-99.99,,,0.00,Acu-Link.com,2013-05-11 05:25:00,
2013-05-10 22:40:00,56.7,50.3,29.97,NNW,337,0.0,-999.0,79,-99.99,,,0.00,Acu-Link.com,2013-05-11 05:40:00,
2013-05-10 22:55:00,56.3,50.5,29.97,South,180,0.0,-999.0,81,-99.99,,,0.00,Acu-Link.com,2013-05-11 05:55:00,
2013-05-10 23:11:00,56.1,50.0,29.97,SSW,202,0.0,-999.0,80,-99.99,,,0.00,Acu-Link.com,2013-05-11 06:11:00,
2013-05-10 23:26:00,55.8,50.1,29.97,ESE,112,1.7,-999.0,81,-99.99,,,0.00,Acu-Link.com,2013-05-11 06:26:00,
2013-05-10 23:41:00,55.6,49.9,29.97,NW,315,0.0,-999.0,81,-99.99,,,0.00,Acu-Link.com,2013-05-11 06:41:00,
2013-05-10 23:56:00,55.4,50.0,29.97,North,0,0.0,-999.0,82,-99.99,,,0.00,Acu-Link.com,2013-05-11 06:56:00,